createdAt,value
2019-06-15T00:02:08.763Z,24.90
2019-06-15T00:04:37.230Z,24.80
2019-06-15T00:07:05.683Z,24.80
2019-06-15T00:09:34.024Z,25.10
2019-06-15T00:12:02.595Z,25.20
2019-06-15T00:14:31.013Z,24.90
2019-06-15T00:16:59.448Z,24.80
2019-06-15T00:19:27.848Z,24.80
2019-06-15T00:21:56.363Z,25.00
2019-06-15T00:24:35.005Z,25.00
2019-06-15T00:26:55.108Z,25.00
2019-06-15T00:29:23.499Z,25.10
2019-06-15T00:31:52.763Z,25.10
2019-06-15T00:34:21.096Z,25.20
2019-06-15T00:36:49.472Z,25.20
2019-06-15T00:39:17.789Z,25.10
2019-06-15T00:41:46.284Z,25.10
2019-06-15T00:44:14.664Z,25.20
2019-06-15T00:46:43.092Z,25.30
2019-06-15T00:49:11.510Z,25.40
2019-06-15T00:51:39.949Z,25.30
2019-06-15T00:54:08.244Z,25.30
2019-06-15T00:56:36.716Z,25.40
2019-06-15T00:59:05.178Z,25.30
2019-06-15T01:01:35.437Z,25.20
2019-06-15T01:04:03.899Z,25.10
2019-06-15T01:06:32.262Z,25.20
2019-06-15T01:09:00.665Z,25.30
2019-06-15T01:11:29.052Z,25.30
2019-06-15T01:13:57.514Z,25.50
2019-06-15T01:16:26.010Z,25.40
2019-06-15T01:18:54.383Z,25.50
2019-06-15T01:21:22.786Z,25.50
2019-06-15T01:23:51.223Z,25.40
2019-06-15T01:26:19.682Z,25.60
2019-06-15T01:28:49.380Z,25.70
2019-06-15T01:31:17.819Z,25.60
2019-06-15T01:33:47.195Z,25.50
2019-06-15T01:36:15.633Z,25.60
2019-06-15T01:38:43.964Z,25.70
2019-06-15T01:41:12.374Z,25.40
2019-06-15T01:43:40.783Z,25.30
2019-06-15T01:46:09.181Z,25.10
2019-06-15T01:48:37.623Z,25.10
2019-06-15T01:51:07.427Z,25.10
2019-06-15T01:53:35.695Z,25.10
2019-06-15T01:56:04.339Z,24.90
2019-06-15T01:58:32.665Z,25.00
2019-06-15T02:01:01.297Z,24.90
2019-06-15T02:03:29.820Z,24.80
2019-06-15T02:05:58.399Z,25.00
2019-06-15T02:08:27.905Z,25.00
2019-06-15T02:10:56.657Z,25.00
2019-06-15T02:13:26.130Z,24.80
2019-06-15T02:15:54.727Z,24.80
2019-06-15T02:18:23.165Z,24.80
2019-06-15T02:20:52.451Z,24.60
2019-06-15T02:23:20.852Z,24.50
2019-06-15T02:25:49.426Z,24.40
2019-06-15T02:28:17.892Z,24.30
2019-06-15T02:30:46.469Z,24.40
2019-06-15T02:33:15.077Z,24.50
2019-06-15T02:35:44.601Z,24.60
2019-06-15T02:38:13.079Z,24.60
2019-06-15T02:40:41.650Z,24.70
2019-06-15T02:43:10.046Z,24.80
2019-06-15T02:45:38.591Z,24.80
2019-06-15T02:48:07.129Z,24.80
2019-06-15T02:50:36.171Z,24.80
2019-06-15T02:53:04.638Z,24.20
2019-06-15T02:55:33.326Z,24.30
2019-06-15T02:58:01.919Z,24.40
2019-06-15T03:00:49.890Z,24.30
2019-06-15T03:03:18.475Z,24.40
2019-06-15T03:05:47.013Z,24.50
2019-06-15T03:08:16.046Z,24.30
2019-06-15T03:10:45.162Z,24.30
2019-06-15T03:13:14.092Z,24.40
2019-06-15T03:15:42.563Z,24.40
2019-06-15T03:18:12.940Z,23.90
2019-06-15T03:20:41.391Z,23.80
2019-06-15T03:23:09.789Z,23.90
2019-06-15T03:25:38.263Z,24.00
2019-06-15T03:28:06.904Z,24.00
2019-06-15T03:30:35.565Z,24.10
2019-06-15T03:33:04.521Z,24.10
2019-06-15T03:35:33.030Z,24.00
2019-06-15T03:38:01.471Z,24.10
2019-06-15T03:40:30.868Z,24.00
2019-06-15T03:42:59.214Z,24.20
2019-06-15T03:45:27.708Z,24.30
2019-06-15T03:47:56.082Z,24.30
2019-06-15T03:50:24.672Z,24.40
2019-06-15T03:52:53.104Z,24.50
2019-06-15T03:55:21.597Z,24.40
2019-06-15T03:57:50.045Z,24.40
2019-06-15T04:00:45.391Z,24.50
2019-06-15T04:03:15.020Z,24.60
2019-06-15T04:05:43.707Z,24.50
2019-06-15T04:08:12.328Z,24.50
2019-06-15T04:10:40.735Z,24.40
2019-06-15T04:13:09.346Z,24.40
2019-06-15T04:15:37.849Z,24.40
2019-06-15T04:18:06.439Z,24.30
2019-06-15T04:20:34.984Z,24.10
2019-06-15T04:23:03.475Z,23.80
2019-06-15T04:25:31.905Z,24.00
2019-06-15T04:28:01.366Z,23.80
2019-06-15T04:30:29.838Z,24.00
2019-06-15T04:32:58.485Z,24.10
2019-06-15T04:35:27.025Z,23.90
2019-06-15T04:37:56.403Z,23.80
2019-06-15T04:40:24.814Z,23.60
2019-06-15T04:42:54.377Z,23.50
2019-06-15T04:45:22.884Z,23.50
2019-06-15T04:47:51.266Z,23.70
2019-06-15T04:50:19.737Z,23.80
2019-06-15T04:52:48.125Z,24.00
2019-06-15T04:55:16.756Z,24.10
2019-06-15T04:57:45.219Z,24.30
2019-06-15T05:00:15.347Z,24.40
2019-06-15T05:02:43.759Z,24.10
2019-06-15T05:05:12.911Z,24.00
2019-06-15T05:07:41.437Z,23.90
2019-06-15T05:10:15.348Z,23.90
2019-06-15T05:12:43.739Z,23.90
2019-06-15T05:15:12.280Z,23.90
2019-06-15T05:17:41.184Z,24.00
2019-06-15T05:20:09.703Z,24.10
2019-06-15T05:22:38.088Z,24.40
2019-06-15T05:25:07.266Z,24.60
2019-06-15T05:27:35.819Z,24.80
2019-06-15T05:30:05.129Z,25.00
2019-06-15T05:32:33.493Z,25.10
2019-06-15T05:35:01.849Z,25.20
2019-06-15T05:37:30.320Z,25.20
2019-06-15T05:39:58.836Z,25.30
2019-06-15T05:42:27.259Z,25.30
2019-06-15T05:44:55.774Z,25.60
2019-06-15T05:47:24.209Z,25.80
2019-06-15T05:49:52.773Z,25.80
2019-06-15T05:52:21.176Z,25.90
2019-06-15T05:54:49.638Z,25.90
2019-06-15T05:57:21.702Z,26.00
2019-06-15T05:59:48.221Z,26.10
2019-06-15T06:02:16.740Z,26.20
2019-06-15T06:04:45.244Z,26.30
2019-06-15T06:07:13.639Z,26.50
2019-06-15T06:14:26.611Z,26.60
2019-06-15T06:17:19.273Z,26.80
2019-06-15T06:19:49.097Z,26.90
2019-06-15T06:22:17.523Z,27.00
2019-06-15T06:24:45.975Z,26.90
2019-06-15T06:27:14.590Z,26.90
2019-06-15T06:29:42.973Z,27.00
2019-06-15T06:32:11.482Z,27.00
2019-06-15T06:34:39.978Z,27.00
2019-06-15T06:37:08.538Z,27.20
2019-06-15T06:39:37.808Z,27.30
2019-06-15T06:42:06.485Z,27.30
2019-06-15T06:44:34.844Z,27.30
2019-06-15T06:47:03.210Z,27.40
2019-06-15T06:49:35.335Z,27.40
2019-06-15T06:52:03.791Z,27.40
2019-06-15T06:54:32.195Z,27.50
2019-06-15T06:57:00.726Z,27.60
2019-06-15T06:59:29.161Z,27.70
2019-06-15T07:01:57.453Z,27.80
2019-06-15T07:04:25.866Z,27.90
2019-06-15T07:06:54.212Z,27.90
2019-06-15T07:09:23.536Z,28.00
2019-06-15T07:11:53.631Z,28.10
2019-06-15T07:14:23.373Z,28.00
2019-06-15T07:16:51.983Z,28.00
2019-06-15T07:19:20.352Z,28.20
2019-06-15T07:21:52.064Z,28.10
2019-06-15T07:24:20.472Z,28.10
2019-06-15T07:26:52.195Z,28.10
2019-06-15T07:29:22.335Z,28.10
2019-06-15T07:31:50.703Z,28.20
2019-06-15T07:34:20.362Z,28.30
2019-06-15T07:36:50.263Z,28.20
2019-06-15T07:39:21.244Z,28.20
2019-06-15T07:41:51.990Z,28.20
2019-06-15T07:44:23.718Z,28.20
2019-06-15T07:46:52.064Z,28.30
2019-06-15T07:49:20.557Z,28.30
2019-06-15T07:51:48.981Z,28.30
2019-06-15T07:54:17.425Z,28.40
2019-06-15T07:56:45.906Z,28.50
2019-06-15T07:59:14.322Z,28.50
2019-06-15T08:01:42.777Z,28.60
2019-06-15T08:04:11.193Z,28.50
2019-06-15T08:06:39.517Z,28.60
2019-06-15T08:09:07.915Z,28.70
2019-06-15T08:11:36.391Z,28.70
2019-06-15T08:14:05.076Z,28.80
2019-06-15T08:16:33.447Z,28.80
2019-06-15T08:19:01.798Z,28.90
2019-06-15T08:21:30.281Z,29.00
2019-06-15T08:23:58.576Z,29.10
2019-06-15T08:26:26.896Z,29.00
2019-06-15T08:28:55.398Z,28.90
2019-06-15T08:31:24.042Z,28.90
2019-06-15T08:33:55.573Z,29.00
2019-06-15T08:36:23.953Z,29.00
2019-06-15T08:38:53.353Z,29.10
2019-06-15T08:41:21.798Z,29.10
2019-06-15T08:43:50.202Z,29.20
2019-06-15T08:46:18.640Z,29.10
2019-06-15T08:48:46.943Z,29.00
2019-06-15T08:51:15.350Z,29.10
2019-06-15T08:53:43.647Z,29.30
2019-06-15T08:56:12.060Z,29.40
2019-06-15T08:58:54.589Z,29.50
2019-06-15T09:01:10.641Z,29.80
2019-06-15T09:03:40.168Z,29.80
2019-06-15T09:06:08.510Z,29.90
2019-06-15T09:08:36.900Z,29.80
2019-06-15T09:11:05.380Z,29.70
2019-06-15T09:13:33.788Z,29.90
2019-06-15T09:16:02.269Z,30.00
2019-06-15T09:18:32.024Z,30.20
2019-06-15T09:21:02.272Z,30.20
2019-06-15T09:23:32.398Z,30.20
2019-06-15T09:26:02.517Z,30.30
2019-06-15T09:28:32.257Z,30.30
2019-06-15T09:31:02.340Z,30.20
2019-06-15T09:33:32.438Z,30.30
2019-06-15T09:36:02.278Z,30.50
2019-06-15T09:38:31.730Z,30.70
2019-06-15T09:41:00.119Z,30.80
2019-06-15T09:43:28.568Z,30.70
2019-06-15T09:45:57.064Z,30.60
2019-06-15T09:48:25.522Z,30.70
2019-06-15T09:50:53.919Z,30.90
2019-06-15T09:53:22.456Z,31.00
2019-06-15T09:55:50.803Z,30.80
2019-06-15T09:58:19.136Z,30.60
2019-06-15T10:00:47.762Z,30.60
2019-06-15T10:03:16.117Z,30.70
2019-06-15T10:05:44.815Z,30.50
2019-06-15T10:08:16.139Z,30.70
2019-06-15T10:10:45.971Z,30.90
2019-06-15T10:13:14.908Z,30.60
2019-06-15T10:15:46.005Z,30.80
2019-06-15T10:18:15.911Z,31.10
2019-06-15T10:20:45.857Z,31.10
2019-06-15T10:23:15.860Z,31.10
2019-06-15T10:25:45.722Z,31.00
2019-06-15T10:28:15.742Z,30.70
2019-06-15T10:30:45.455Z,31.10
2019-06-15T10:33:17.001Z,31.20
2019-06-15T10:35:48.583Z,31.30
2019-06-15T10:38:19.431Z,31.40
2019-06-15T10:40:47.900Z,31.30
2019-06-15T10:43:17.194Z,31.20
2019-06-15T10:45:45.621Z,31.40
2019-06-15T10:48:13.968Z,31.30
2019-06-15T10:50:42.317Z,31.50
2019-06-15T10:53:10.782Z,31.50
2019-06-15T10:55:39.112Z,31.50
2019-06-15T10:58:07.438Z,31.50
2019-06-15T11:00:35.855Z,31.40
2019-06-15T11:03:04.851Z,31.80
2019-06-15T11:05:33.346Z,32.00
2019-06-15T11:08:01.864Z,32.00
2019-06-15T11:10:56.359Z,32.10
2019-06-15T11:13:27.208Z,32.10
2019-06-15T11:15:56.449Z,32.30
2019-06-15T11:18:26.297Z,32.40
2019-06-15T11:20:54.648Z,32.50
2019-06-15T11:23:23.314Z,32.50
2019-06-15T11:25:51.786Z,32.60
2019-06-15T11:28:20.324Z,32.60
2019-06-15T11:30:48.659Z,32.50
2019-06-15T11:33:17.176Z,32.70
2019-06-15T11:35:46.173Z,32.70
2019-06-15T11:38:17.973Z,32.80
2019-06-15T11:40:49.984Z,32.70
2019-06-15T11:43:19.360Z,32.50
2019-06-15T11:45:48.048Z,32.80
2019-06-15T11:48:16.703Z,32.80
2019-06-15T11:50:45.092Z,32.90
2019-06-15T11:53:13.504Z,32.80
2019-06-15T11:55:42.335Z,32.30
2019-06-15T11:58:12.347Z,32.50
2019-06-15T12:00:42.472Z,32.90
2019-06-15T12:03:13.374Z,32.90
2019-06-15T12:05:41.748Z,32.90
2019-06-15T12:08:10.208Z,32.90
2019-06-15T12:10:38.575Z,32.80
2019-06-15T12:13:08.192Z,32.60
2019-06-15T12:15:36.683Z,32.70
2019-06-15T12:18:05.170Z,33.00
2019-06-15T12:20:33.689Z,33.10
2019-06-15T12:23:02.171Z,33.30
2019-06-15T12:25:30.722Z,33.40
2019-06-15T12:27:59.169Z,33.50
2019-06-15T12:30:46.179Z,32.90
2019-06-15T12:33:11.269Z,32.90
2019-06-15T12:35:40.811Z,33.00
2019-06-15T12:38:10.173Z,32.80
2019-06-15T12:40:38.566Z,32.90
2019-06-15T12:43:07.047Z,33.00
2019-06-15T12:45:35.491Z,33.20
2019-06-15T12:48:04.133Z,32.90
2019-06-15T12:50:32.728Z,33.30
2019-06-15T12:53:01.200Z,33.50
2019-06-15T12:55:30.352Z,34.00
2019-06-15T12:57:58.833Z,34.00
2019-06-15T13:00:33.594Z,32.80
2019-06-15T13:03:01.953Z,32.70
2019-06-15T13:05:30.314Z,32.80
2019-06-15T13:08:00.212Z,32.60
2019-06-15T13:10:28.606Z,32.80
2019-06-15T13:12:56.953Z,32.70
2019-06-15T13:15:25.527Z,32.60
2019-06-15T13:17:53.919Z,32.50
2019-06-15T13:20:22.593Z,31.90
2019-06-15T13:22:51.061Z,32.30
2019-06-15T13:25:21.497Z,32.90
2019-06-15T13:27:49.825Z,33.40
2019-06-15T13:30:22.095Z,33.50
2019-06-15T13:32:50.454Z,33.60
2019-06-15T13:35:18.958Z,33.70
2019-06-15T13:37:50.818Z,33.80
2019-06-15T13:40:21.243Z,33.40
2019-06-15T13:42:52.437Z,33.80
2019-06-15T13:45:23.921Z,34.50
2019-06-15T13:47:52.471Z,34.60
2019-06-15T13:50:24.204Z,34.40
2019-06-15T13:52:52.777Z,34.20
2019-06-15T13:55:22.619Z,34.50
2019-06-15T13:57:51.214Z,34.10
2019-06-15T14:00:19.936Z,34.90
2019-06-15T14:02:48.415Z,35.60
2019-06-15T14:05:20.438Z,35.90
2019-06-15T14:07:48.809Z,36.00
2019-06-15T14:10:17.372Z,35.50
2019-06-15T14:12:45.762Z,35.30
2019-06-15T14:15:14.793Z,34.40
2019-06-15T14:17:43.165Z,34.80
2019-06-15T14:20:12.401Z,35.20
2019-06-15T14:22:40.660Z,35.40
2019-06-15T14:25:09.368Z,35.90
2019-06-15T14:27:37.771Z,34.70
2019-06-15T14:30:06.743Z,35.20
2019-06-15T14:32:38.577Z,35.50
2019-06-15T14:35:10.605Z,35.80
2019-06-15T14:37:39.057Z,35.80
2019-06-15T14:40:07.853Z,36.00
2019-06-15T14:42:36.345Z,36.10
2019-06-15T14:45:05.610Z,35.90
2019-06-15T14:47:37.662Z,36.00
2019-06-15T14:50:06.425Z,36.00
2019-06-15T14:52:34.954Z,35.50
2019-06-15T14:55:03.600Z,35.80
2019-06-15T14:57:36.150Z,35.90
2019-06-15T15:00:08.618Z,35.80
2019-06-15T15:02:37.271Z,35.20
2019-06-15T15:05:06.861Z,36.00
2019-06-15T15:07:36.811Z,35.70
2019-06-15T15:10:07.378Z,35.20
2019-06-15T15:12:41.663Z,35.70
2019-06-15T15:15:10.198Z,35.80
2019-06-15T15:17:38.830Z,35.90
2019-06-15T15:20:09.344Z,36.30
2019-06-15T15:22:37.821Z,36.00
2019-06-15T15:25:07.086Z,36.70
2019-06-15T15:27:37.445Z,36.60
2019-06-15T15:30:08.145Z,36.20
2019-06-15T15:32:37.123Z,36.20
2019-06-15T15:35:06.607Z,35.20
2019-06-15T15:37:37.212Z,35.30
2019-06-15T15:40:08.878Z,35.80
2019-06-15T15:42:37.439Z,35.10
2019-06-15T15:45:07.162Z,36.00
2019-06-15T15:47:36.253Z,36.40
2019-06-15T15:50:06.433Z,36.70
2019-06-15T15:52:37.164Z,36.50
2019-06-15T15:55:06.842Z,36.20
2019-06-15T15:57:36.274Z,35.50
2019-06-15T16:00:07.362Z,35.50
2019-06-15T16:02:48.104Z,34.70
2019-06-15T16:05:06.454Z,35.00
2019-06-15T16:07:36.408Z,35.10
2019-06-15T16:10:06.430Z,34.20
2019-06-15T16:12:36.134Z,34.80
2019-06-15T16:15:07.286Z,35.20
2019-06-15T16:17:37.226Z,34.30
2019-06-15T16:20:11.799Z,34.80
2019-06-15T16:22:40.092Z,35.00
2019-06-15T16:25:08.646Z,35.10
2019-06-15T16:27:37.223Z,35.30
2019-06-15T16:30:06.540Z,35.80
2019-06-15T16:32:37.204Z,36.50
2019-06-15T16:35:05.661Z,36.50
2019-06-15T16:37:34.071Z,36.20
2019-06-15T16:40:02.596Z,35.30
2019-06-15T16:42:31.218Z,35.20
2019-06-15T16:44:59.568Z,35.40
2019-06-15T16:47:29.071Z,36.00
2019-06-15T16:49:57.453Z,35.20
2019-06-15T16:52:26.967Z,36.10
2019-06-15T16:54:55.564Z,35.80
2019-06-15T16:57:26.495Z,35.70
2019-06-15T16:59:56.078Z,35.90
2019-06-15T17:02:26.055Z,35.60
2019-06-15T17:04:56.854Z,35.40
2019-06-15T17:07:26.253Z,35.60
2019-06-15T17:09:56.762Z,35.70
2019-06-15T17:12:26.002Z,34.70
2019-06-15T17:14:54.712Z,34.00
2019-06-15T17:17:23.115Z,33.40
2019-06-15T17:19:52.176Z,33.90
2019-06-15T17:22:21.451Z,34.10
2019-06-15T17:24:50.169Z,34.00
2019-06-15T17:27:18.644Z,34.80
2019-06-15T17:29:47.027Z,34.90
2019-06-15T17:32:17.045Z,34.40
2019-06-15T17:34:47.010Z,34.10
2019-06-15T17:37:17.229Z,33.80
2019-06-15T17:39:46.676Z,33.80
2019-06-15T17:42:16.413Z,33.90
2019-06-15T17:44:46.149Z,33.90
2019-06-15T17:47:16.886Z,33.20
2019-06-15T17:49:46.847Z,32.90
2019-06-15T17:52:16.905Z,33.10
2019-06-15T17:54:46.708Z,33.10
2019-06-15T17:57:15.502Z,32.80
2019-06-15T17:59:44.088Z,32.60
2019-06-15T18:02:12.718Z,32.60
2019-06-15T18:04:41.162Z,32.10
2019-06-15T18:07:10.675Z,31.60
2019-06-15T18:09:39.082Z,31.60
2019-06-15T18:12:07.654Z,31.80
2019-06-15T18:14:36.762Z,31.40
2019-06-15T18:17:07.288Z,31.40
2019-06-15T18:19:36.949Z,31.40
2019-06-15T18:22:07.234Z,31.40
2019-06-15T18:24:37.256Z,31.40
2019-06-15T18:27:08.975Z,31.30
2019-06-15T18:29:36.812Z,31.10
2019-06-15T18:32:06.412Z,31.20
2019-06-15T18:34:36.821Z,31.10
2019-06-15T18:37:07.596Z,30.90
2019-06-15T18:39:36.915Z,30.70
2019-06-15T18:42:07.726Z,30.40
2019-06-15T18:44:36.650Z,30.20
2019-06-15T18:47:07.103Z,30.20
2019-06-15T18:49:36.298Z,30.20
2019-06-15T18:52:06.157Z,30.10
2019-06-15T18:54:36.369Z,30.10
2019-06-15T18:57:07.267Z,30.20
2019-06-15T18:59:36.567Z,30.30
2019-06-15T19:02:06.727Z,30.10
2019-06-15T19:04:35.273Z,30.30
2019-06-15T19:07:03.694Z,30.30
2019-06-15T19:09:32.036Z,30.30
2019-06-15T19:12:00.526Z,30.20
2019-06-15T19:14:28.912Z,30.30
2019-06-15T19:16:57.390Z,30.20
2019-06-15T19:19:26.569Z,30.20
2019-06-15T19:21:57.189Z,30.20
2019-06-15T19:24:26.039Z,30.10
2019-06-15T19:26:54.655Z,30.10
2019-06-15T19:29:23.297Z,30.00
2019-06-15T19:31:54.185Z,29.80
2019-06-15T19:34:21.972Z,29.80
2019-06-15T19:36:50.379Z,29.70
2019-06-15T19:39:18.709Z,29.80
2019-06-15T19:41:47.217Z,29.80
2019-06-15T19:44:16.333Z,30.00
2019-06-15T19:46:47.460Z,30.00
2019-06-15T19:49:17.104Z,29.90
2019-06-15T19:51:47.272Z,30.00
2019-06-15T19:54:15.986Z,29.80
2019-06-15T19:56:46.527Z,29.60
2019-06-15T19:59:16.933Z,29.50
2019-06-15T20:01:46.829Z,29.40
2019-06-15T20:04:17.010Z,29.30
2019-06-15T20:06:45.998Z,29.50
2019-06-15T20:09:14.682Z,29.20
2019-06-15T20:11:42.970Z,29.00
2019-06-15T20:14:11.337Z,29.00
2019-06-15T20:16:39.905Z,28.90
2019-06-15T20:19:08.249Z,29.10
2019-06-15T20:21:37.451Z,29.10
2019-06-15T20:24:06.399Z,29.20
2019-06-15T20:26:36.577Z,29.10
2019-06-15T20:29:07.093Z,29.10
2019-06-15T20:31:36.993Z,29.20
2019-06-15T20:34:05.437Z,29.20
2019-06-15T20:36:36.399Z,28.80
2019-06-15T20:39:07.129Z,28.40
2019-06-15T20:41:37.645Z,28.10
2019-06-15T20:44:06.031Z,28.00
2019-06-15T20:46:36.913Z,27.90
2019-06-15T20:49:06.553Z,28.00
2019-06-15T20:51:37.111Z,27.90
2019-06-15T20:54:06.964Z,27.60
2019-06-15T20:56:37.270Z,27.60
2019-06-15T20:59:06.379Z,27.40
2019-06-15T21:01:36.969Z,27.60
2019-06-15T21:04:07.188Z,27.60
2019-06-15T21:06:37.083Z,27.50
2019-06-15T21:09:06.694Z,27.80
2019-06-15T21:11:36.236Z,27.70
2019-06-15T21:14:05.103Z,27.70
2019-06-15T21:16:33.501Z,27.50
2019-06-15T21:19:02.061Z,27.50
2019-06-15T21:21:30.536Z,27.50
2019-06-15T21:24:00.033Z,27.70
2019-06-15T21:26:28.286Z,27.50
2019-06-15T21:28:56.722Z,27.50
2019-06-15T21:31:26.188Z,27.60
2019-06-15T21:33:56.114Z,27.60
2019-06-15T21:36:26.110Z,27.90
2019-06-15T21:38:56.305Z,27.90
2019-06-15T21:41:26.173Z,27.90
2019-06-15T21:43:56.497Z,27.80
2019-06-15T21:46:26.672Z,28.00
2019-06-15T21:48:56.355Z,27.90
2019-06-15T21:51:27.084Z,27.50
2019-06-15T21:53:56.064Z,27.30
2019-06-15T21:56:28.578Z,27.50
2019-06-15T21:58:56.534Z,27.60
2019-06-15T22:01:32.367Z,27.70
2019-06-15T22:04:02.004Z,27.80
2019-06-15T22:06:31.165Z,27.90
2019-06-15T22:08:59.668Z,27.50
2019-06-15T22:11:28.220Z,27.30
2019-06-15T22:13:57.169Z,27.10
2019-06-15T22:16:27.540Z,26.90
2019-06-15T22:18:56.254Z,26.80
2019-06-15T22:21:27.424Z,27.00
2019-06-15T22:23:55.911Z,26.90
2019-06-15T22:26:26.637Z,26.90
2019-06-15T22:28:56.772Z,26.90
2019-06-15T22:31:25.017Z,26.60
2019-06-15T22:33:53.364Z,26.50
2019-06-15T22:36:25.343Z,26.60
2019-06-15T22:38:51.929Z,26.70
2019-06-15T22:41:20.251Z,26.60
2019-06-15T22:43:48.695Z,26.50
2019-06-15T22:46:17.087Z,26.50
2019-06-15T22:48:46.985Z,26.50
2019-06-15T22:51:16.858Z,26.50
2019-06-15T22:53:47.340Z,26.50
2019-06-15T22:56:17.045Z,26.40
2019-06-15T22:58:46.197Z,26.30
2019-06-15T23:01:16.829Z,26.40
2019-06-15T23:03:46.603Z,26.40
2019-06-15T23:06:16.155Z,26.30
2019-06-15T23:08:47.080Z,26.40
2019-06-15T23:11:17.195Z,26.30
2019-06-15T23:13:46.285Z,26.20
2019-06-15T23:16:14.936Z,26.20
2019-06-15T23:18:43.390Z,26.20
2019-06-15T23:21:11.878Z,26.10
2019-06-15T23:23:40.222Z,26.20
2019-06-15T23:26:08.658Z,26.20
2019-06-15T23:28:37.122Z,26.10
2019-06-15T23:31:07.607Z,26.20
2019-06-15T23:33:35.612Z,26.30
2019-06-15T23:36:08.925Z,26.00
2019-06-15T23:38:37.752Z,26.00
2019-06-15T23:41:07.049Z,25.90
2019-06-15T23:43:36.212Z,25.80
2019-06-15T23:46:06.695Z,25.70
2019-06-15T23:48:36.446Z,25.70
2019-06-15T23:51:06.121Z,25.70
2019-06-15T23:53:36.743Z,25.70
2019-06-15T23:56:06.299Z,25.60
2019-06-15T23:58:37.052Z,25.60
